Time;durP1;ratioP1;P1;durP2;ratioP2;P2;SDS_P1;SDS_P2;PMS_P1;PMS_P2;Temp;Humidity;BMP_temperature;BMP_pressure;BME280_temperature;BME280_humidity;BME280_pressure;Samples;Min_cycle;Max_cycle;Signal;HPM_P1;HPM_P2
2022/06/19 00:00:44;;;;;;;23.90;4.43;;;;;;;22.04;58.26;98608.25;5064578;28;20032;-55
2022/06/19 00:03:15;;;;;;;20.05;4.47;;;;;;;21.97;58.74;98610.69;5045611;28;20119;-56
2022/06/19 00:05:40;;;;;;;27.17;4.40;;;;;;;21.84;59.37;98609.84;5028469;28;20028;-53
2022/06/19 00:08:06;;;;;;;19.70;4.70;;;;;;;21.73;60.72;98608.63;5064403;28;20494;-56
2022/06/19 00:10:31;;;;;;;22.63;4.35;;;;;;;21.48;61.23;98603.00;5066800;28;20079;-56
2022/06/19 00:12:57;;;;;;;19.58;4.13;;;;;;;21.28;60.21;98590.88;5067762;28;20529;-56
2022/06/19 00:15:22;;;;;;;22.75;4.13;;;;;;;21.61;58.98;98592.97;5049396;28;20017;-56
2022/06/19 00:17:48;;;;;;;20.65;3.95;;;;;;;21.68;59.46;98587.00;5066475;28;20024;-55
2022/06/19 00:20:13;;;;;;;24.95;4.55;;;;;;;22.02;56.12;98588.66;5068337;28;20037;-56
2022/06/19 00:22:39;;;;;;;14.15;4.30;;;;;;;22.06;57.30;98580.59;5067162;28;20074;-55
2022/06/19 00:25:05;;;;;;;21.17;4.60;;;;;;;21.85;60.96;98578.69;5067492;28;20340;-55
2022/06/19 00:27:31;;;;;;;14.63;4.93;;;;;;;21.56;61.43;98581.47;5050025;28;20082;-55
2022/06/19 00:29:58;;;;;;;15.15;4.97;;;;;;;21.42;63.38;98589.91;5068005;28;20021;-56
2022/06/19 00:32:25;;;;;;;15.55;4.15;;;;;;;21.21;63.80;98593.31;5065743;28;20390;-56
2022/06/19 00:34:51;;;;;;;19.15;4.40;;;;;;;20.96;64.95;98584.13;5067212;28;20480;-55
2022/06/19 00:37:16;;;;;;;19.75;4.55;;;;;;;20.91;65.13;98578.88;5067355;28;20021;-56
2022/06/19 00:39:42;;;;;;;16.60;4.53;;;;;;;20.69;66.31;98582.63;5064943;28;20105;-55
2022/06/19 00:42:12;;;;;;;17.83;5.38;;;;;;;20.58;65.10;98565.06;5047072;28;20017;-56
2022/06/19 00:44:38;;;;;;;;;;;;;;;20.77;63.25;98567.41;5066705;28;20505;-56
2022/06/19 00:47:12;;;;;;;15.38;4.90;;;;;;;20.71;64.79;98566.75;5066648;28;19916;-55
2022/06/19 00:49:46;;;;;;;20.30;4.85;;;;;;;20.49;66.12;98567.75;5066436;28;20029;-56
2022/06/19 00:52:20;;;;;;;23.40;4.93;;;;;;;20.51;63.15;98562.78;5047644;28;20029;-56
2022/06/19 00:54:47;;;;;;;26.88;4.20;;;;;;;20.54;63.08;98553.19;5064804;28;20510;-56
2022/06/19 00:57:13;;;;;;;28.15;4.40;;;;;;;20.44;63.01;98549.69;5048045;28;20016;-57
2022/06/19 00:59:39;;;;;;;26.98;5.25;;;;;;;20.60;62.40;98547.28;5065080;28;20017;-57
2022/06/19 01:02:05;;;;;;;17.50;3.97;;;;;;;20.69;61.86;98547.22;5032583;28;20538;-58
2022/06/19 01:04:35;;;;;;;20.88;5.47;;;;;;;20.77;61.82;98545.63;5032638;28;20021;-60
2022/06/19 01:07:00;;;;;;;24.50;4.45;;;;;;;21.00;60.08;98548.88;5027870;28;20060;-57
2022/06/19 01:09:25;;;;;;;19.63;4.43;;;;;;;21.03;61.22;98549.00;5051773;28;20043;-57
2022/06/19 01:11:51;;;;;;;17.27;3.78;;;;;;;21.02;60.83;98547.44;5065524;28;20434;-57
2022/06/19 01:14:18;;;;;;;21.55;4.18;;;;;;;21.13;60.01;98536.94;5064679;28;20402;-57
2022/06/19 01:16:44;;;;;;;18.75;4.35;;;;;;;21.18;59.62;98534.03;5019266;28;20055;-56
2022/06/19 01:19:09;;;;;;;17.48;4.20;;;;;;;21.24;59.61;98530.00;5067102;28;20415;-56
2022/06/19 01:22:13;;;;;;;24.50;4.85;;;;;;;21.02;62.57;98525.63;5069190;28;20430;-56
2022/06/19 01:25:11;;;;;;;14.15;4.40;;;;;;;20.91;63.38;98518.94;5052383;28;20048;-56
2022/06/19 01:30:22;;;;;;;17.77;4.13;;;;;;;20.79;63.63;98511.50;5027555;28;20089;-55
2022/06/19 01:32:48;;;;;;;14.85;4.07;;;;;;;20.75;64.61;98512.47;5068291;28;20020;-57
2022/06/19 01:35:14;;;;;;;14.95;4.28;;;;;;;20.60;65.33;98513.81;5039252;28;20032;-57
2022/06/19 01:37:39;;;;;;;16.02;4.43;;;;;;;20.32;66.86;98514.19;5048191;28;20035;-56
2022/06/19 01:40:27;;;;;;;15.55;4.28;;;;;;;20.39;64.95;98503.59;5050375;28;20021;-56
2022/06/19 01:42:53;;;;;;;17.30;4.55;;;;;;;20.41;65.62;98508.72;5051536;28;20059;-55
2022/06/19 01:45:19;;;;;;;20.35;5.07;;;;;;;20.29;66.65;98509.38;5040768;28;20025;-56
2022/06/19 01:47:45;;;;;;;21.55;4.47;;;;;;;20.66;62.28;98498.88;5069363;28;20038;-56
2022/06/19 01:50:26;;;;;;;14.82;4.95;;;;;;;20.90;60.22;98493.66;5068772;28;20406;-55
2022/06/19 01:52:53;;;;;;;18.00;4.50;;;;;;;20.88;61.00;98487.72;5068453;28;20036;-57
2022/06/19 01:55:19;;;;;;;18.00;4.63;;;;;;;20.70;64.05;98488.94;5027839;28;20017;-56
2022/06/19 01:57:47;;;;;;;15.82;4.30;;;;;;;20.59;62.99;98487.69;5023244;28;20122;-54
2022/06/19 02:00:18;;;;;;;18.23;4.25;;;;;;;20.91;60.95;98486.25;5068453;28;20020;-56
2022/06/19 02:02:44;;;;;;;16.75;4.85;;;;;;;21.19;59.54;98486.59;5068208;28;20040;-56
2022/06/19 02:05:09;;;;;;;25.27;4.55;;;;;;;21.02;60.46;98476.59;5046445;28;20033;-56
2022/06/19 02:07:35;;;;;;;13.15;4.32;;;;;;;21.15;59.58;98474.75;5031709;28;20073;-56
2022/06/19 02:10:00;;;;;;;26.63;4.82;;;;;;;21.19;58.78;98470.25;5068015;28;20049;-55
2022/06/19 02:12:26;;;;;;;22.10;4.80;;;;;;;21.27;58.01;98469.38;5051037;28;20032;-56
2022/06/19 02:14:52;;;;;;;23.08;4.68;;;;;;;21.16;60.55;98461.94;5050510;28;20441;-56
2022/06/19 02:17:36;;;;;;;18.92;4.45;;;;;;;20.69;63.47;98462.81;5067012;28;20020;-56
2022/06/19 02:20:03;;;;;;;18.02;4.53;;;;;;;20.19;66.87;98455.31;5041109;28;20078;-55
2022/06/19 02:22:29;;;;;;;20.25;4.40;;;;;;;20.06;67.24;98461.75;5068727;28;20453;-56
2022/06/19 02:24:54;;;;;;;16.45;5.03;;;;;;;19.85;68.04;98465.16;5067144;28;20059;-55
2022/06/19 02:27:20;;;;;;;20.10;4.72;;;;;;;19.65;69.27;98463.06;5049880;28;20387;-56
2022/06/19 02:29:45;;;;;;;11.27;4.15;;;;;;;19.49;69.54;98454.59;5067569;28;20471;-54
2022/06/19 02:32:32;;;;;;;16.98;4.85;;;;;;;19.43;70.32;98464.81;5050661;28;20028;-54
2022/06/19 02:34:57;;;;;;;18.00;3.92;;;;;;;19.36;70.85;98456.34;5033206;28;20032;-55
2022/06/19 02:37:24;;;;;;;18.10;4.60;;;;;;;19.23;71.41;98455.38;5068269;28;20363;-55
2022/06/19 02:40:19;;;;;;;18.83;4.32;;;;;;;19.24;70.75;98442.59;5038711;28;20025;-56
2022/06/19 02:42:46;;;;;;;24.52;5.40;;;;;;;19.36;69.95;98445.47;5025375;28;20055;-56
2022/06/19 02:45:26;;;;;;;21.50;4.57;;;;;;;19.22;69.99;98440.22;5067658;28;20108;-55
2022/06/19 02:47:52;;;;;;;17.23;4.47;;;;;;;19.12;70.71;98440.50;5067675;28;20028;-54
2022/06/19 02:50:20;;;;;;;19.77;4.57;;;;;;;19.00;71.30;98441.13;5070104;28;20023;-55
2022/06/19 02:52:45;;;;;;;19.95;4.50;;;;;;;19.04;71.16;98422.28;5050158;28;20040;-54
2022/06/19 02:55:11;;;;;;;21.27;4.80;;;;;;;18.90;71.82;98422.44;5069666;28;20020;-54
2022/06/19 02:57:37;;;;;;;16.88;5.30;;;;;;;19.06;70.22;98414.63;5069066;28;20025;-56
2022/06/19 03:00:04;;;;;;;12.32;4.25;;;;;;;18.83;72.58;98422.09;5069473;28;20127;-56
2022/06/19 03:02:31;;;;;;;17.40;4.95;;;;;;;18.72;73.38;98416.13;5069671;28;20033;-56
2022/06/19 03:04:58;;;;;;;24.23;4.70;;;;;;;18.39;74.86;98407.56;5069278;28;20033;-55
2022/06/19 03:07:25;;;;;;;15.13;4.40;;;;;;;18.38;75.32;98408.69;5068968;28;20424;-56
2022/06/19 03:09:50;;;;;;;16.85;4.05;;;;;;;18.41;75.08;98414.28;5067588;28;20044;-56
2022/06/19 03:12:16;;;;;;;30.42;5.57;;;;;;;18.38;74.60;98411.41;5068423;28;20055;-54
2022/06/19 03:14:42;;;;;;;23.80;5.13;;;;;;;18.23;75.37;98420.75;5068692;28;20035;-55
2022/06/19 03:17:07;;;;;;;17.90;4.20;;;;;;;18.46;74.15;98413.34;5068155;28;20016;-55
2022/06/19 03:19:34;;;;;;;20.50;4.43;;;;;;;18.62;72.62;98414.50;5068255;28;20043;-55
2022/06/19 03:21:59;;;;;;;20.92;5.10;;;;;;;18.79;72.16;98419.19;5069701;28;20390;-55
2022/06/19 03:24:26;;;;;;;16.65;5.07;;;;;;;18.59;73.18;98412.41;5068923;28;20040;-55
2022/06/19 03:26:52;;;;;;;17.10;4.32;;;;;;;18.74;72.08;98420.09;5063962;28;20165;-56
2022/06/19 03:29:17;;;;;;;13.50;5.20;;;;;;;18.48;72.72;98419.25;5068675;28;20103;-55
2022/06/19 03:31:43;;;;;;;20.63;4.78;;;;;;;18.38;73.65;98414.13;5068729;28;20057;-54
2022/06/19 03:34:08;;;;;;;18.55;4.60;;;;;;;18.53;72.85;98424.53;5067808;28;20040;-56
2022/06/19 03:36:34;;;;;;;16.05;4.85;;;;;;;18.71;72.41;98428.88;5069082;28;20021;-56
2022/06/19 03:38:59;;;;;;;18.63;4.68;;;;;;;18.68;73.58;98432.25;5068381;28;20024;-56
2022/06/19 03:41:25;;;;;;;12.77;4.60;;;;;;;18.80;72.27;98430.88;5067596;28;20025;-56
2022/06/19 03:43:50;;;;;;;14.77;4.10;;;;;;;18.80;73.08;98434.38;5068827;28;20054;-56
2022/06/19 03:46:17;;;;;;;20.40;5.07;;;;;;;18.79;72.17;98442.84;5068131;28;20016;-56
2022/06/19 03:48:43;;;;;;;22.00;5.50;;;;;;;18.93;71.18;98451.66;5068423;28;20028;-56
2022/06/19 03:51:09;;;;;;;18.17;4.85;;;;;;;18.85;71.85;98447.00;5068590;28;20099;-55
2022/06/19 03:53:34;;;;;;;16.83;4.70;;;;;;;18.89;71.08;98447.97;5067425;28;20115;-56
2022/06/19 03:56:00;;;;;;;19.08;4.65;;;;;;;19.15;69.79;98446.09;5069319;28;20050;-55
2022/06/19 03:58:45;;;;;;;23.00;4.60;;;;;;;19.37;68.96;98438.94;5067768;28;20024;-55
2022/06/19 04:01:14;;;;;;;20.13;4.47;;;;;;;19.94;66.70;98441.44;5066942;28;20028;-54
2022/06/19 04:03:40;;;;;;;23.92;4.90;;;;;;;20.26;65.48;98436.56;5046327;28;20612;-56
2022/06/19 04:06:05;;;;;;;20.65;4.90;;;;;;;21.07;63.11;98440.22;5049921;28;20483;-55
2022/06/19 04:08:31;;;;;;;19.23;5.30;;;;;;;21.39;61.24;98435.16;5048739;28;20241;-56
2022/06/19 04:10:56;;;;;;;18.42;4.50;;;;;;;23.00;55.93;98446.13;5069174;28;20052;-56
2022/06/19 04:13:22;;;;;;;17.52;4.93;;;;;;;23.26;56.17;98434.78;5038893;28;20020;-56
2022/06/19 04:15:47;;;;;;;20.48;4.63;;;;;;;24.01;52.40;98433.38;5068398;28;20059;-55
2022/06/19 04:18:13;;;;;;;25.42;4.85;;;;;;;24.58;51.60;98432.09;5067795;28;20047;-55
2022/06/19 04:20:38;;;;;;;28.95;5.38;;;;;;;24.62;51.70;98438.47;5049643;28;20021;-56
2022/06/19 04:23:06;;;;;;;21.80;4.60;;;;;;;24.71;51.90;98439.06;5067123;28;20489;-55
2022/06/19 04:25:31;;;;;;;19.00;4.35;;;;;;;24.40;53.94;98450.00;5050150;28;20116;-56
2022/06/19 04:27:57;;;;;;;21.08;3.92;;;;;;;24.42;53.33;98464.94;5067167;28;20047;-55
2022/06/19 04:30:22;;;;;;;27.73;5.00;;;;;;;24.80;51.91;98487.41;5037094;28;20032;-56
2022/06/19 04:32:47;;;;;;;26.52;4.95;;;;;;;22.37;57.81;98473.75;5066420;28;20025;-56
2022/06/19 04:35:13;;;;;;;17.00;5.10;;;;;;;22.48;57.10;98458.50;5049752;28;20455;-56
2022/06/19 04:37:43;;;;;;;24.30;4.57;;;;;;;22.61;57.21;98451.91;5067680;28;20036;-55
2022/06/19 04:40:09;;;;;;;21.73;5.13;;;;;;;23.36;55.20;98458.09;5060943;28;20538;-55
2022/06/19 04:42:34;;;;;;;27.45;5.07;;;;;;;25.64;49.42;98453.25;5068216;28;20092;-55
2022/06/19 04:45:00;;;;;;;18.30;4.80;;;;;;;25.74;47.50;98434.25;5066885;28;20024;-56
2022/06/19 04:47:25;;;;;;;18.25;4.85;;;;;;;26.50;46.93;98441.88;5051273;28;20032;-55
2022/06/19 04:49:51;;;;;;;25.98;4.75;;;;;;;27.36;44.41;98464.41;5067474;28;20443;-55
2022/06/19 04:52:16;;;;;;;22.08;5.10;;;;;;;28.42;43.23;98453.03;5070081;28;20029;-56
2022/06/19 04:54:42;;;;;;;16.15;4.70;;;;;;;28.57;43.18;98468.53;5071361;28;20089;-56
2022/06/19 04:57:07;;;;;;;21.50;4.63;;;;;;;27.14;45.59;98479.81;5072051;28;20028;-56
2022/06/19 04:59:33;;;;;;;19.33;4.82;;;;;;;25.89;48.96;98512.19;5071677;28;20060;-55
2022/06/19 05:01:58;;;;;;;26.00;5.20;;;;;;;25.37;49.76;98514.22;5054042;28;20070;-56
2022/06/19 05:04:24;;;;;;;23.38;4.82;;;;;;;26.77;46.23;98508.72;5070615;28;20032;-56
2022/06/19 05:06:49;;;;;;;25.98;5.47;;;;;;;25.90;48.43;98513.78;5058128;28;20472;-56
2022/06/19 05:09:14;;;;;;;22.27;4.90;;;;;;;27.72;44.23;98524.25;5070441;28;20440;-55
2022/06/19 05:11:40;;;;;;;24.85;5.10;;;;;;;27.54;44.46;98518.53;5071229;28;20054;-56
2022/06/19 05:14:05;;;;;;;20.55;5.28;;;;;;;24.55;51.58;98501.28;5071406;28;20028;-56
2022/06/19 05:16:31;;;;;;;21.55;5.40;;;;;;;26.59;46.88;98516.66;5071491;28;20493;-56
2022/06/19 05:18:56;;;;;;;22.45;5.25;;;;;;;28.37;42.79;98538.78;5070981;28;20036;-56
2022/06/19 05:21:24;;;;;;;22.50;6.05;;;;;;;28.24;43.17;98531.97;5070712;28;20494;-56
2022/06/19 05:23:50;;;;;;;24.58;5.38;;;;;;;29.31;42.01;98524.66;5071201;28;20020;-55
2022/06/19 05:26:17;;;;;;;21.17;5.45;;;;;;;29.37;42.21;98528.63;5070778;28;20413;-55
2022/06/19 05:28:44;;;;;;;23.10;5.63;;;;;;;28.37;45.58;98531.31;5070249;28;20085;-55
2022/06/19 05:31:09;;;;;;;17.77;6.32;;;;;;;27.75;47.32;98523.50;5042712;28;20021;-55
2022/06/19 05:33:35;;;;;;;25.13;5.97;;;;;;;28.23;47.07;98533.13;5068668;28;20036;-56
2022/06/19 05:36:00;;;;;;;18.13;5.70;;;;;;;29.02;45.59;98549.25;5070819;28;20042;-56
2022/06/19 05:38:26;;;;;;;18.73;5.90;;;;;;;28.02;47.83;98526.22;5051566;28;20025;-56
2022/06/19 05:40:52;;;;;;;21.75;6.05;;;;;;;27.18;50.03;98530.97;5071319;28;20047;-55
2022/06/19 05:43:18;;;;;;;16.75;5.50;;;;;;;26.55;52.34;98536.97;5069269;28;20099;-56
2022/06/19 05:45:51;;;;;;;15.85;5.68;;;;;;;27.94;48.96;98538.31;5070275;28;20112;-57
2022/06/19 05:48:17;;;;;;;14.85;5.43;;;;;;;27.70;49.28;98507.31;5069350;28;20067;-56
2022/06/19 05:50:42;;;;;;;15.50;5.40;;;;;;;28.05;49.21;98511.69;5070881;28;21763;-56
2022/06/19 05:53:08;;;;;;;17.08;5.88;;;;;;;28.42;47.27;98510.88;5069544;28;20028;-57
2022/06/19 05:55:33;;;;;;;17.10;5.78;;;;;;;29.64;45.47;98517.34;5070854;28;20442;-55
2022/06/19 05:57:58;;;;;;;17.73;5.40;;;;;;;30.69;43.16;98510.94;5053729;28;20417;-57
2022/06/19 06:00:24;;;;;;;16.17;5.32;;;;;;;30.26;43.77;98522.75;5070799;28;20032;-58
2022/06/19 06:02:49;;;;;;;16.20;5.28;;;;;;;30.18;43.24;98529.41;5069754;28;20354;-57
2022/06/19 06:05:15;;;;;;;22.65;5.68;;;;;;;29.07;45.71;98514.25;5070159;28;20035;-58
2022/06/19 06:07:40;;;;;;;19.85;5.63;;;;;;;28.33;47.01;98505.69;5070054;28;20040;-57
2022/06/19 06:10:06;;;;;;;15.30;5.22;;;;;;;30.04;43.83;98526.59;5069382;28;20040;-57
2022/06/19 06:12:31;;;;;;;19.83;5.88;;;;;;;29.03;45.79;98523.25;5068892;28;20112;-57
2022/06/19 06:14:57;;;;;;;17.83;5.30;;;;;;;28.46;46.78;98514.50;5070233;28;20387;-57
2022/06/19 06:17:23;;;;;;;21.60;5.85;;;;;;;27.68;49.62;98509.66;5069840;28;20071;-56
2022/06/19 06:19:48;;;;;;;13.30;5.07;;;;;;;28.85;45.70;98504.97;5044995;28;20028;-57
2022/06/19 06:22:14;;;;;;;19.90;5.50;;;;;;;28.54;45.90;98510.63;5070795;28;20032;-57
2022/06/19 06:24:39;;;;;;;11.52;4.78;;;;;;;27.60;47.55;98535.50;5024405;28;20028;-57
2022/06/19 06:27:05;;;;;;;16.42;5.00;;;;;;;28.33;45.73;98524.16;5068989;28;20036;-56
2022/06/19 06:29:31;;;;;;;15.85;4.82;;;;;;;27.06;47.55;98529.22;5069459;28;20036;-56
2022/06/19 06:31:58;;;;;;;12.60;4.45;;;;;;;27.68;47.09;98534.44;5069218;28;20044;-56
2022/06/19 06:34:24;;;;;;;19.20;4.78;;;;;;;28.16;45.89;98534.63;5070424;28;20078;-56
2022/06/19 06:36:49;;;;;;;14.20;4.20;;;;;;;27.53;45.70;98546.41;5068880;28;20033;-56
2022/06/19 06:39:14;;;;;;;11.85;4.63;;;;;;;27.08;47.46;98550.81;5070202;28;20283;-57
2022/06/19 06:41:40;;;;;;;17.58;4.65;;;;;;;28.47;44.99;98560.19;5051283;28;20435;-56
2022/06/19 06:44:06;;;;;;;15.20;4.75;;;;;;;29.08;42.31;98559.94;5068270;28;20070;-55
2022/06/19 06:46:31;;;;;;;13.10;4.40;;;;;;;29.58;42.09;98549.25;5069655;28;20033;-55
2022/06/19 06:48:59;;;;;;;12.88;3.88;;;;;;;28.60;43.62;98542.19;5069125;28;20517;-56
2022/06/19 06:51:26;;;;;;;14.52;4.60;;;;;;;28.39;44.15;98530.94;5069418;28;20017;-56
2022/06/19 06:53:51;;;;;;;10.80;3.83;;;;;;;28.48;44.01;98527.91;5068201;28;20459;-55
2022/06/19 06:56:17;;;;;;;17.05;4.95;;;;;;;27.77;44.86;98534.13;5068611;28;20040;-55
2022/06/19 06:58:42;;;;;;;20.50;4.38;;;;;;;28.48;44.32;98539.72;5066549;28;20036;-56
2022/06/19 07:01:15;;;;;;;13.00;4.25;;;;;;;29.57;42.07;98553.19;5051842;28;20025;-55
2022/06/19 07:03:42;;;;;;;14.02;5.03;;;;;;;27.24;46.22;98548.75;5047056;28;20467;-55
2022/06/19 07:06:08;;;;;;;12.60;4.63;;;;;;;27.69;45.67;98552.53;5035776;28;20454;-55
2022/06/19 07:08:33;;;;;;;10.25;4.07;;;;;;;29.09;42.56;98545.78;5050372;28;20021;-55
2022/06/19 07:10:59;;;;;;;17.65;4.22;;;;;;;29.10;42.75;98541.06;5069066;28;20045;-56
2022/06/19 07:13:24;;;;;;;13.45;4.20;;;;;;;29.93;41.04;98539.56;5068749;28;20031;-56
2022/06/19 07:15:51;;;;;;;17.77;4.60;;;;;;;30.57;39.46;98548.06;5050108;28;20040;-56
2022/06/19 07:18:16;;;;;;;16.85;4.30;;;;;;;30.49;40.22;98549.25;5059588;28;20050;-56
2022/06/19 07:20:42;;;;;;;14.10;4.40;;;;;;;28.09;44.13;98556.59;5068899;28;20479;-56
2022/06/19 07:23:07;;;;;;;16.10;4.68;;;;;;;29.57;41.74;98558.72;5067697;28;20036;-55
2022/06/19 07:25:33;;;;;;;11.85;4.55;;;;;;;28.88;42.31;98559.38;5052544;28;20087;-55
2022/06/19 07:28:01;;;;;;;18.00;4.90;;;;;;;29.20;42.22;98567.94;5068401;28;20028;-55
2022/06/19 07:30:26;;;;;;;12.88;4.50;;;;;;;30.09;40.60;98567.66;5068370;28;20028;-56
2022/06/19 07:32:53;;;;;;;16.20;4.57;;;;;;;29.21;42.59;98552.97;5051063;28;20050;-56
2022/06/19 07:35:18;;;;;;;12.70;4.63;;;;;;;29.65;41.64;98549.28;5069893;28;20107;-56
2022/06/19 07:37:44;;;;;;;15.50;4.45;;;;;;;28.31;43.69;98551.34;5068250;28;20382;-56
2022/06/19 07:40:12;;;;;;;15.20;5.40;;;;;;;28.02;44.78;98570.28;5069443;28;20395;-56
2022/06/19 07:42:37;;;;;;;21.47;5.23;;;;;;;28.32;44.94;98580.47;5035467;28;20028;-55
2022/06/19 07:45:03;;;;;;;11.68;4.43;;;;;;;27.97;45.96;98578.88;5067413;28;20023;-56
2022/06/19 07:50:15;;;;;;;14.93;4.50;;;;;;;27.45;46.55;98621.78;5066080;28;20035;-55
2022/06/19 07:52:42;;;;;;;15.57;4.70;;;;;;;26.50;48.49;98622.44;5032731;28;20114;-55
2022/06/19 07:55:08;;;;;;;12.63;4.80;;;;;;;25.99;50.16;98637.13;5064234;28;20119;-55
2022/06/19 07:57:34;;;;;;;16.85;4.88;;;;;;;24.98;52.59;98639.38;5067431;28;20066;-57
2022/06/19 07:59:59;;;;;;;24.65;6.07;;;;;;;25.02;52.66;98621.09;5066845;28;20025;-56
2022/06/19 08:02:25;;;;;;;28.55;5.15;;;;;;;26.52;49.60;98636.59;5067587;28;20020;-55
2022/06/19 08:04:51;;;;;;;30.75;5.40;;;;;;;27.20;46.92;98637.88;5049487;28;20349;-56
2022/06/19 08:07:17;;;;;;;26.55;5.32;;;;;;;26.08;48.74;98643.16;5067206;28;20033;-55
2022/06/19 08:09:42;;;;;;;26.88;5.22;;;;;;;25.80;49.61;98637.84;5048985;28;20437;-54
2022/06/19 08:12:08;;;;;;;22.80;5.07;;;;;;;27.34;45.62;98637.34;5066949;28;20024;-55
2022/06/19 08:14:34;;;;;;;20.90;5.45;;;;;;;26.46;47.04;98645.16;5066714;28;20454;-55
2022/06/19 08:16:59;;;;;;;24.67;5.68;;;;;;;25.55;49.16;98672.94;5067288;28;20146;-54
2022/06/19 08:19:25;;;;;;;26.13;6.18;;;;;;;24.92;50.44;98681.91;5037257;28;20021;-55
2022/06/19 08:21:50;;;;;;;21.20;5.68;;;;;;;25.31;49.23;98706.81;5064143;28;20024;-55
2022/06/19 08:24:17;;;;;;;39.47;6.05;;;;;;;25.00;49.34;98702.88;5059036;28;20024;-54
2022/06/19 08:26:42;;;;;;;25.73;5.43;;;;;;;25.67;48.31;98685.75;5066482;28;20028;-55
2022/06/19 08:29:08;;;;;;;25.25;5.75;;;;;;;25.71;48.44;98697.59;5040249;28;20375;-56
2022/06/19 08:31:34;;;;;;;18.55;5.75;;;;;;;26.17;47.67;98686.91;5066853;28;20043;-59
2022/06/19 08:33:59;;;;;;;35.22;5.95;;;;;;;26.15;46.68;98689.22;5067129;28;20029;-58
2022/06/19 08:36:24;;;;;;;25.08;5.35;;;;;;;24.79;50.10;98692.13;5067750;28;20039;-59
2022/06/19 08:39:03;;;;;;;37.40;5.97;;;;;;;24.22;51.20;98679.53;5038570;28;20082;-54
2022/06/19 08:42:11;;;;;;;30.48;5.60;;;;;;;24.75;51.41;98713.94;5032364;28;20038;-56
2022/06/19 08:44:58;;;;;;;20.85;5.63;;;;;;;25.47;48.66;98718.59;5046220;28;20036;-56
2022/06/19 08:47:45;;;;;;;21.02;6.18;;;;;;;24.13;51.38;98731.66;5034580;28;20025;-56
2022/06/19 08:50:42;;;;;;;20.25;6.25;;;;;;;25.84;48.47;98748.50;5048603;28;20031;-55
2022/06/19 08:53:30;;;;;;;32.55;6.45;;;;;;;25.51;48.30;98757.09;5017039;28;20106;-56
2022/06/19 08:56:05;;;;;;;16.63;6.30;;;;;;;25.29;49.31;98751.06;5066878;28;20036;-57
2022/06/19 08:58:57;;;;;;;30.50;7.47;;;;;;;24.18;50.80;98761.53;5052554;28;20517;-56
2022/06/19 09:01:50;;;;;;;48.80;7.70;;;;;;;25.57;47.97;98766.66;5019814;28;20506;-55
2022/06/19 09:07:51;;;;;;;39.45;7.65;;;;;;;25.73;48.30;98772.16;5052476;28;20402;-56
2022/06/19 09:10:35;;;;;;;53.05;7.43;;;;;;;26.74;45.80;98775.28;5034827;28;20052;-57
2022/06/19 09:13:06;;;;;;;37.55;7.47;;;;;;;25.48;48.53;98777.00;5064798;28;20377;-56
2022/06/19 09:15:44;;;;;;;59.05;8.18;;;;;;;25.91;48.00;98794.56;5049969;28;20486;-55
2022/06/19 09:18:20;;;;;;;32.72;7.13;;;;;;;25.79;48.16;98781.72;5029361;28;20032;-56
2022/06/19 09:20:57;;;;;;;20.30;6.63;;;;;;;25.85;47.78;98780.31;5066247;28;20429;-54
2022/06/19 09:23:49;;;;;;;39.05;6.93;;;;;;;25.56;48.56;98796.06;5046240;28;20515;-55
2022/06/19 09:26:21;;;;;;;31.65;6.65;;;;;;;26.88;45.55;98795.63;5049068;28;20020;-57
2022/06/19 09:28:53;;;;;;;32.00;6.75;;;;;;;25.87;47.03;98794.50;5066871;28;20048;-55
2022/06/19 09:31:28;;;;;;;19.92;7.20;;;;;;;25.54;47.44;98812.06;5034182;28;20082;-56
2022/06/19 09:33:58;;;;;;;35.28;7.30;;;;;;;25.39;48.70;98810.09;5048272;28;20047;-55
2022/06/19 09:36:28;;;;;;;31.48;6.93;;;;;;;25.83;46.50;98799.88;5037458;28;20101;-56
2022/06/19 09:39:02;;;;;;;28.65;6.65;;;;;;;25.15;48.98;98809.03;5051836;28;20016;-56
2022/06/19 09:41:37;;;;;;;38.15;6.82;;;;;;;25.91;47.43;98798.13;5070228;28;20483;-56
2022/06/19 09:44:18;;;;;;;28.50;6.40;;;;;;;26.90;44.02;98793.28;5050542;28;20033;-56
2022/06/19 09:46:54;;;;;;;20.90;6.05;;;;;;;27.29;43.81;98789.75;5052257;28;20025;-56
2022/06/19 09:49:40;;;;;;;18.90;6.18;;;;;;;27.07;44.11;98799.50;5046018;28;20411;-56
2022/06/19 09:52:27;;;;;;;21.35;6.05;;;;;;;28.19;41.93;98794.81;5070775;28;20493;-56
2022/06/19 09:55:05;;;;;;;25.20;5.82;;;;;;;27.65;43.01;98799.41;5068799;28;20032;-56
2022/06/19 09:57:44;;;;;;;22.73;6.03;;;;;;;25.38;46.79;98805.75;5048540;28;20032;-56
2022/06/19 10:00:21;;;;;;;23.38;6.35;;;;;;;25.34;47.64;98788.41;5069298;28;20609;-56
2022/06/19 10:02:48;;;;;;;17.25;5.28;;;;;;;25.73;47.25;98783.91;5047452;28;20033;-56
2022/06/19 10:05:33;;;;;;;21.23;5.82;;;;;;;27.49;42.98;98791.28;5054763;28;20083;-56
2022/06/19 10:08:38;;;;;;;23.35;5.32;;;;;;;28.01;41.97;98797.28;5069186;28;20267;-57
2022/06/19 10:11:08;;;;;;;23.50;6.13;;;;;;;27.69;42.06;98797.53;5058490;28;20066;-56
2022/06/19 10:13:40;;;;;;;17.38;5.40;;;;;;;27.30;43.28;98797.59;5038550;28;20171;-56
2022/06/19 10:16:44;;;;;;;22.38;5.28;;;;;;;27.36;43.28;98789.88;5030605;28;20500;-56
2022/06/19 10:19:13;;;;;;;19.88;5.43;;;;;;;25.93;46.71;98781.28;5052380;28;20356;-56
2022/06/19 10:22:13;;;;;;;20.43;5.70;;;;;;;26.03;45.74;98775.25;5053394;28;20013;-56
2022/06/19 10:24:53;;;;;;;24.63;6.40;;;;;;;26.88;44.88;98762.63;5047379;28;20368;-56
2022/06/19 10:27:33;;;;;;;21.25;5.78;;;;;;;27.24;43.69;98749.56;5050087;28;20028;-55
2022/06/19 10:29:58;;;;;;;21.75;5.55;;;;;;;26.42;44.67;98756.91;5068759;28;20032;-57
2022/06/19 10:32:26;;;;;;;21.30;6.32;;;;;;;26.23;45.35;98740.38;5069505;28;20051;-56
2022/06/19 10:35:24;;;;;;;22.17;6.15;;;;;;;27.11;43.25;98728.88;5039389;28;20101;-57
2022/06/19 10:38:22;;;;;;;21.52;6.43;;;;;;;27.23;43.85;98731.47;5048460;28;20507;-57
2022/06/19 10:44:53;;;;;;;17.75;6.32;;;;;;;27.79;43.04;98698.97;5056632;28;20039;-56
2022/06/19 10:47:47;;;;;;;18.10;6.90;;;;;;;26.30;44.29;98690.31;5030367;28;20040;-56
2022/06/19 10:50:36;;;;;;;22.42;8.82;;;;;;;25.60;47.48;98678.94;5065106;28;20484;-57
2022/06/19 10:53:23;;;;;;;17.48;8.52;;;;;;;25.28;48.86;98666.41;5034584;28;20032;-56
2022/06/19 10:55:54;;;;;;;21.42;7.85;;;;;;;26.07;46.88;98654.53;5070052;28;20170;-56
2022/06/19 10:58:20;;;;;;;16.85;7.57;;;;;;;26.90;44.72;98642.06;5068991;28;20033;-55
2022/06/19 11:00:50;;;;;;;20.65;8.15;;;;;;;26.50;46.01;98638.91;5068929;28;20033;-56
2022/06/19 11:06:12;;;;;;;19.80;8.02;;;;;;;24.52;50.94;98617.03;5030983;28;20505;-57
2022/06/19 11:08:39;;;;;;;24.80;9.73;;;;;;;25.51;49.33;98600.72;5043026;28;20033;-55
2022/06/19 11:11:05;;;;;;;21.48;8.75;;;;;;;25.47;50.02;98611.63;5049339;28;20032;-57
2022/06/19 11:13:55;;;;;;;20.55;8.90;;;;;;;26.54;47.26;98612.34;5044050;28;20142;-55
2022/06/19 11:16:20;;;;;;;24.23;8.48;;;;;;;26.27;49.01;98609.44;5068231;28;20486;-54
2022/06/19 11:18:48;;;;;;;19.73;7.60;;;;;;;26.36;49.26;98596.28;5050463;28;20025;-56
2022/06/19 11:21:19;;;;;;;20.27;8.55;;;;;;;26.43;48.40;98590.94;5068264;28;20029;-56
2022/06/19 11:23:47;;;;;;;16.15;6.80;;;;;;;27.83;45.89;98595.19;5020426;28;20047;-55
2022/06/19 11:26:18;;;;;;;16.30;7.03;;;;;;;27.25;45.89;98610.06;5067948;28;20032;-55
2022/06/19 11:28:47;;;;;;;19.17;6.70;;;;;;;28.34;45.61;98630.47;5068830;28;20364;-56
2022/06/19 11:31:24;;;;;;;17.10;7.40;;;;;;;27.91;45.83;98638.22;5069497;28;20042;-56
2022/06/19 11:33:53;;;;;;;18.15;6.22;;;;;;;29.50;42.67;98647.00;5068328;28;20032;-56
2022/06/19 11:36:36;;;;;;;15.70;6.63;;;;;;;27.60;46.35;98647.53;5051059;28;20012;-56
2022/06/19 11:39:29;;;;;;;15.95;6.18;;;;;;;29.19;43.52;98638.88;5050799;28;20340;-56
2022/06/19 11:41:54;;;;;;;19.35;6.10;;;;;;;29.58;42.68;98629.31;5062262;28;20040;-56
2022/06/19 11:44:20;;;;;;;18.35;6.65;;;;;;;28.22;45.03;98603.19;5067288;28;20082;-56
2022/06/19 11:46:54;;;;;;;15.60;6.43;;;;;;;26.53;49.32;98588.75;5068487;28;20029;-55
2022/06/19 11:49:39;;;;;;;19.15;6.75;;;;;;;26.77;49.39;98577.44;5045691;28;20039;-56
2022/06/19 11:52:25;;;;;;;29.75;7.50;;;;;;;26.88;49.55;98578.41;5041646;28;20053;-55